Time;durP1;ratioP1;P1;durP2;ratioP2;P2;SDS_P1;SDS_P2;PMS_P1;PMS_P2;Temp;Humidity;BMP_temperature;BMP_pressure;BME280_temperature;BME280_humidity;BME280_pressure;Samples;Min_cycle;Max_cycle;Signal;HPM_P1;HPM_P2
2021/12/22 00:01:24;;;;;;;7.20;3.07;;;;;;;-5.10;25.77;98802.41;5056159;28;20285;-76
2021/12/22 00:03:50;;;;;;;6.07;2.63;;;;;;;-5.31;25.56;98747.44;5055902;28;20068;-76
2021/12/22 00:06:20;;;;;;;2.17;1.90;;;;;;;-4.91;26.32;98784.94;5074429;28;20278;-77
2021/12/22 00:08:46;;;;;;;2.97;2.60;;;;;;;-5.03;26.37;98791.63;5042367;28;20284;-77
2021/12/22 00:11:12;;;;;;;2.87;2.07;;;;;;;-5.12;26.12;98786.97;5055992;28;20139;-77
2021/12/22 00:13:38;;;;;;;6.70;2.27;;;;;;;-5.02;25.95;98795.03;5056047;28;20750;-79
2021/12/22 00:16:04;;;;;;;4.90;2.80;;;;;;;-4.99;26.01;98789.69;5040405;28;20044;-78
2021/12/22 00:18:30;;;;;;;3.37;2.77;;;;;;;-5.18;26.50;98785.50;5056954;28;20097;-78
2021/12/22 00:20:56;;;;;;;3.60;2.03;;;;;;;-5.14;26.17;98795.69;5039463;28;20777;-78
2021/12/22 00:23:22;;;;;;;4.00;2.07;;;;;;;-5.23;26.04;98786.69;5057419;28;20164;-79
2021/12/22 00:25:47;;;;;;;3.60;2.70;;;;;;;-5.25;26.02;98793.69;5057014;28;20290;-78
2021/12/22 00:28:14;;;;;;;2.77;2.40;;;;;;;-5.31;25.87;98792.28;5039958;28;20039;-78
2021/12/22 00:30:40;;;;;;;13.73;3.20;;;;;;;-5.11;25.82;98793.78;5056220;28;20301;-78
2021/12/22 00:33:09;;;;;;;6.77;2.87;;;;;;;-5.43;26.35;98786.91;5072820;28;20496;-78
2021/12/22 00:35:41;;;;;;;4.53;3.13;;;;;;;-5.49;26.16;98787.22;5039620;28;20279;-78
2021/12/22 00:38:08;;;;;;;6.67;2.60;;;;;;;-5.53;26.08;98745.16;5090592;28;20390;-78
2021/12/22 00:40:34;;;;;;;3.90;2.13;;;;;;;-5.39;26.77;98791.00;5038914;28;20339;-77
2021/12/22 00:43:00;;;;;;;3.70;2.60;;;;;;;-5.63;26.49;98793.09;5039890;28;20285;-77
2021/12/22 00:45:28;;;;;;;6.40;3.30;;;;;;;-5.71;26.07;98794.41;5039954;28;20367;-77
2021/12/22 00:47:55;;;;;;;4.07;2.13;;;;;;;-5.47;26.73;98785.38;5072866;28;20056;-78
2021/12/22 00:50:22;;;;;;;3.43;2.37;;;;;;;-5.42;26.26;98788.56;5055877;28;20333;-78
2021/12/22 00:52:48;;;;;;;4.10;2.90;;;;;;;-5.77;26.33;98792.97;5056186;28;20282;-77
2021/12/22 00:55:18;;;;;;;2.53;2.33;;;;;;;-5.75;25.95;98796.31;5055999;28;20369;-77
2021/12/22 00:57:45;;;;;;;2.08;1.95;;;;;;;-5.95;26.01;98795.69;5074091;28;20403;-77
2021/12/22 01:00:11;;;;;;;2.83;2.57;;;;;;;-6.10;26.64;98793.84;5094611;28;20054;-77
2021/12/22 01:02:37;;;;;;;5.67;2.50;;;;;;;-6.24;25.92;98788.56;5061551;28;20297;-77
2021/12/22 01:05:03;;;;;;;2.80;2.50;;;;;;;-6.27;26.33;98784.34;5039710;28;20375;-78
2021/12/22 01:07:32;;;;;;;5.03;3.17;;;;;;;-5.89;26.16;98783.28;5050186;28;20270;-77
2021/12/22 01:09:57;;;;;;;3.07;2.60;;;;;;;-6.48;25.79;98793.16;5051075;28;20301;-77
2021/12/22 01:12:23;;;;;;;8.27;2.97;;;;;;;-6.49;26.34;98785.47;5017152;28;20294;-77
2021/12/22 01:14:49;;;;;;;2.20;2.00;;;;;;;-6.57;26.03;98809.09;5017730;28;20059;-77
2021/12/22 01:17:18;;;;;;;5.97;2.77;;;;;;;-6.54;26.25;98808.09;5050641;28;20286;-77
2021/12/22 01:20:02;;;;;;;2.80;2.40;;;;;;;-6.54;25.82;98790.03;5034889;28;20283;-78
2021/12/22 01:25:02;;;;;;;1.60;1.50;;;;;;;-6.64;25.73;98809.47;5069066;28;20305;-77
2021/12/22 01:27:34;;;;;;;3.67;3.20;;;;;;;-6.29;25.85;98809.44;5037216;28;20045;-79
2021/12/22 01:30:07;;;;;;;3.37;2.83;;;;;;;-6.08;25.63;98820.47;5052960;28;20291;-80
2021/12/22 01:32:33;;;;;;;3.10;2.70;;;;;;;-7.10;25.72;98778.03;5055490;28;20656;-79
2021/12/22 01:34:59;;;;;;;2.60;2.23;;;;;;;-6.86;26.20;98813.94;5057481;28;20306;-78
2021/12/22 01:37:25;;;;;;;2.80;2.57;;;;;;;-7.05;25.58;98795.88;5057948;28;20302;-79
2021/12/22 01:39:51;;;;;;;2.33;2.23;;;;;;;-7.02;26.40;98804.34;5056094;28;20278;-78
2021/12/22 01:42:17;;;;;;;2.90;2.20;;;;;;;-6.81;26.74;98805.06;5072550;28;20298;-78
2021/12/22 01:45:12;;;;;;;2.58;2.38;;;;;;;-6.39;26.45;98813.38;5039006;28;20147;-78
2021/12/22 01:50:41;;;;;;;2.05;1.92;;;;;;;-6.18;26.08;98807.16;5058606;28;20048;-79
2021/12/22 01:53:21;;;;;;;1.80;1.70;;;;;;;-6.12;26.57;98801.69;5056552;28;20041;-78
2021/12/22 01:56:23;;;;;;;2.15;1.90;;;;;;;-6.27;26.32;98776.59;5057310;28;20305;-78
2021/12/22 01:58:53;;;;;;;2.50;1.77;;;;;;;-6.38;26.85;98796.13;5073044;28;20044;-78
2021/12/22 02:01:20;;;;;;;2.88;2.25;;;;;;;-6.53;27.06;98802.84;5056109;28;20118;-79
2021/12/22 02:03:48;;;;;;;8.53;2.53;;;;;;;-6.46;26.71;98800.81;5073116;28;20052;-78
2021/12/22 02:06:15;;;;;;;2.10;1.90;;;;;;;-6.73;26.51;98756.50;5072320;28;20291;-78
2021/12/22 02:08:44;;;;;;;3.57;2.87;;;;;;;-6.62;26.64;98795.56;5022215;28;20373;-78
2021/12/22 02:11:11;;;;;;;5.47;3.43;;;;;;;-6.53;26.54;98796.88;5055800;28;20666;-79
2021/12/22 02:13:41;;;;;;;1.93;1.83;;;;;;;-6.72;26.61;98804.66;5023535;28;20287;-76
2021/12/22 02:16:11;;;;;;;3.33;3.08;;;;;;;-6.45;26.09;98797.31;5039621;28;20275;-77
2021/12/22 02:18:46;;;;;;;4.22;2.22;;;;;;;-6.47;25.80;98809.50;5055540;28;20548;-76
2021/12/22 02:21:12;;;;;;;3.90;3.23;;;;;;;-6.88;25.98;98783.03;5072571;28;20105;-77
2021/12/22 02:23:42;;;;;;;2.70;2.50;;;;;;;-6.34;26.87;98795.06;5038036;28;20288;-77
2021/12/22 02:26:15;;;;;;;4.53;2.70;;;;;;;-6.96;26.61;98779.97;5054299;28;20805;-77
2021/12/22 02:28:47;;;;;;;3.27;2.80;;;;;;;-6.72;26.63;98808.97;5071785;28;20550;-78
2021/12/22 02:31:17;;;;;;;3.00;2.63;;;;;;;-6.48;26.32;98823.28;5076020;28;20298;-79
2021/12/22 02:33:46;;;;;;;1.95;1.85;;;;;;;-6.33;26.07;98818.22;5042165;28;20294;-77
2021/12/22 02:39:05;;;;;;;5.03;3.20;;;;;;;-6.18;26.07;98809.72;5058771;28;20325;-77
2021/12/22 02:41:32;;;;;;;5.63;3.67;;;;;;;-6.53;26.13;98812.38;5057304;28;20669;-78
2021/12/22 02:43:59;;;;;;;3.83;2.87;;;;;;;-6.07;26.67;98812.63;5056982;28;20290;-76
2021/12/22 02:46:31;;;;;;;3.23;2.67;;;;;;;-5.81;26.01;98809.53;5056366;28;20996;-77
2021/12/22 02:48:57;;;;;;;6.70;2.77;;;;;;;-6.60;26.35;98767.06;5057223;28;20276;-78
2021/12/22 02:51:24;;;;;;;2.70;2.17;;;;;;;-6.25;25.99;98817.84;5071066;28;20325;-78
2021/12/22 03:01:39;;;;;;;3.87;2.10;;;;;;;-6.26;26.57;98780.88;5044340;28;20297;-78
2021/12/22 03:04:11;;;;;;;1.87;1.77;;;;;;;-5.81;26.03;98804.38;5024233;28;20870;-78
2021/12/22 03:06:59;;;;;;;2.70;2.07;;;;;;;-5.97;25.75;98775.09;5056582;28;20351;-78
2021/12/22 03:09:30;;;;;;;2.40;2.27;;;;;;;-6.02;26.00;98817.56;5057967;28;20294;-79
2021/12/22 03:11:58;;;;;;;2.50;2.30;;;;;;;-6.13;25.85;98815.53;5039363;28;20297;-79
2021/12/22 03:14:24;;;;;;;2.70;2.50;;;;;;;-6.18;25.98;98807.16;5075844;28;20306;-79
2021/12/22 03:16:51;;;;;;;2.57;2.33;;;;;;;-6.33;25.91;98797.56;5074614;28;20293;-78
2021/12/22 03:19:19;;;;;;;11.37;2.17;;;;;;;-6.37;25.72;98754.72;5041134;28;20381;-76
2021/12/22 03:21:46;;;;;;;1.73;1.63;;;;;;;-6.31;25.66;98794.91;5074470;28;20290;-78
2021/12/22 03:24:14;;;;;;;5.73;2.20;;;;;;;-6.24;26.48;98786.78;5076175;28;20282;-76
2021/12/22 03:26:44;;;;;;;3.93;2.60;;;;;;;-6.53;26.22;98784.78;5091063;28;20797;-77
2021/12/22 03:29:13;;;;;;;3.35;2.17;;;;;;;-6.07;26.53;98797.13;5058334;28;20285;-77
2021/12/22 03:31:39;;;;;;;2.23;1.97;;;;;;;-6.30;26.10;98799.16;5053494;28;20050;-76
2021/12/22 03:34:06;;;;;;;2.33;2.13;;;;;;;-6.28;26.63;98815.44;5037301;28;20791;-77
2021/12/22 03:36:32;;;;;;;2.60;2.40;;;;;;;-6.43;26.43;98811.00;5070833;28;20271;-81
2021/12/22 03:38:58;;;;;;;2.50;2.30;;;;;;;-6.78;25.86;98779.09;5037864;28;20278;-77
2021/12/22 03:41:24;;;;;;;1.70;1.60;;;;;;;-6.63;26.14;98804.22;5048015;28;20293;-76
2021/12/22 03:43:50;;;;;;;3.27;2.30;;;;;;;-6.67;26.52;98799.28;5037724;28;20045;-79
2021/12/22 03:46:16;;;;;;;2.87;2.37;;;;;;;-6.63;26.11;98805.97;5043099;28;20587;-78
2021/12/22 03:48:42;;;;;;;2.43;2.23;;;;;;;-6.68;26.23;98789.84;5039678;28;20071;-76
2021/12/22 03:51:08;;;;;;;1.93;1.83;;;;;;;-6.70;26.37;98765.88;5055425;28;20078;-77
2021/12/22 03:53:34;;;;;;;2.40;2.20;;;;;;;-6.87;26.22;98766.63;5055584;28;20864;-76
2021/12/22 03:56:00;;;;;;;2.43;2.00;;;;;;;-6.68;26.90;98808.75;5057104;28;20365;-78
2021/12/22 03:58:28;;;;;;;4.27;2.00;;;;;;;-6.62;26.32;98817.94;5091354;28;20800;-75
2021/12/22 04:00:56;;;;;;;2.37;1.87;;;;;;;-6.66;26.04;98819.84;5041232;28;20324;-76
2021/12/22 04:03:26;;;;;;;4.13;2.83;;;;;;;-6.61;26.30;98786.88;5039958;28;20278;-75
2021/12/22 04:05:51;;;;;;;7.70;2.25;;;;;;;-6.57;26.32;98821.16;5057154;28;20286;-75
2021/12/22 04:08:20;;;;;;;2.93;2.73;;;;;;;-6.61;26.50;98817.88;5040238;28;20139;-76
2021/12/22 04:10:47;;;;;;;2.97;2.63;;;;;;;-6.28;26.26;98836.09;5041328;28;20067;-76
2021/12/22 04:13:14;;;;;;;2.97;2.10;;;;;;;-6.91;26.57;98729.00;5074901;28;20332;-76
2021/12/22 04:15:40;;;;;;;6.40;3.00;;;;;;;-6.52;26.98;98814.03;5040151;28;20309;-76
2021/12/22 04:18:06;;;;;;;8.17;3.10;;;;;;;-6.49;26.49;98831.97;5040435;28;20891;-77
2021/12/22 04:20:32;;;;;;;3.00;2.70;;;;;;;-6.70;26.44;98832.97;5041281;28;20290;-77
2021/12/22 04:22:59;;;;;;;3.43;2.77;;;;;;;-6.40;26.32;98828.94;5040525;28;20043;-75
2021/12/22 04:25:25;;;;;;;14.43;2.80;;;;;;;-6.40;26.56;98816.03;5072512;28;20062;-68
2021/12/22 04:27:55;;;;;;;2.63;2.23;;;;;;;-6.09;26.13;98848.03;5084344;28;20270;-64
2021/12/22 04:30:22;;;;;;;6.82;3.20;;;;;;;-6.34;26.54;98816.56;5089168;28;20294;-78
2021/12/22 04:32:48;;;;;;;3.33;2.63;;;;;;;-6.59;26.14;98831.56;5089180;28;20056;-75
2021/12/22 04:35:14;;;;;;;2.63;2.43;;;;;;;-6.52;26.54;98845.88;5040058;28;20302;-70
2021/12/22 04:37:39;;;;;;;7.63;3.77;;;;;;;-6.71;26.41;98844.19;5089321;28;20040;-73
2021/12/22 04:40:06;;;;;;;2.40;1.97;;;;;;;-6.65;26.36;98839.59;5046153;28;20089;-71
2021/12/22 04:42:32;;;;;;;4.30;2.93;;;;;;;-6.65;25.86;98842.19;5039757;28;20040;-73
2021/12/22 04:44:59;;;;;;;3.23;2.77;;;;;;;-6.99;27.11;98834.31;5044597;28;20293;-73
2021/12/22 04:47:24;;;;;;;3.50;3.00;;;;;;;-6.91;26.53;98833.94;5039477;28;20289;-75
2021/12/22 04:49:53;;;;;;;3.37;3.03;;;;;;;-6.51;26.53;98820.84;5046100;28;20279;-74
2021/12/22 04:52:24;;;;;;;3.53;3.13;;;;;;;-7.06;26.40;98826.00;5074374;28;20044;-73
2021/12/22 04:55:03;;;;;;;7.25;3.05;;;;;;;-7.25;26.82;98820.00;5056224;28;20047;-75
2021/12/22 04:57:31;;;;;;;2.13;1.95;;;;;;;-6.80;26.85;98822.25;5057403;28;20044;-78
2021/12/22 04:59:57;;;;;;;2.43;2.17;;;;;;;-7.02;26.57;98827.56;5053850;28;20048;-76
2021/12/22 05:02:23;;;;;;;3.73;2.40;;;;;;;-7.22;26.32;98832.78;5068232;28;20299;-75
2021/12/22 05:04:49;;;;;;;4.13;2.70;;;;;;;-7.35;27.08;98831.63;5045294;28;20832;-71
2021/12/22 05:07:14;;;;;;;4.87;1.90;;;;;;;-7.25;26.77;98822.59;5038511;28;20043;-75
2021/12/22 05:09:40;;;;;;;3.77;2.97;;;;;;;-7.12;26.71;98839.19;5043094;28;20040;-76
2021/12/22 05:12:06;;;;;;;7.17;3.60;;;;;;;-6.98;26.73;98843.75;5042109;28;20058;-72
2021/12/22 05:14:32;;;;;;;1.77;1.67;;;;;;;-7.13;26.26;98831.50;5042094;28;20043;-77
2021/12/22 05:17:04;;;;;;;3.17;2.50;;;;;;;-7.14;26.48;98822.94;5042939;28;20357;-77
2021/12/22 05:19:30;;;;;;;1.93;1.80;;;;;;;-7.08;26.40;98827.84;5093304;28;20043;-73
2021/12/22 05:21:56;;;;;;;3.37;2.83;;;;;;;-7.10;26.14;98829.63;5042080;28;20282;-72
2021/12/22 05:24:23;;;;;;;5.10;2.73;;;;;;;-6.93;26.74;98831.44;5058127;28;20415;-70
2021/12/22 05:26:49;;;;;;;5.13;2.50;;;;;;;-6.79;26.48;98851.44;5072465;28;20286;-73
2021/12/22 05:29:16;;;;;;;2.00;1.90;;;;;;;-7.01;26.51;98836.94;5104931;28;20039;-74
2021/12/22 05:31:42;;;;;;;3.30;1.90;;;;;;;-6.84;26.41;98848.25;5071701;28;20339;-74
2021/12/22 05:34:08;;;;;;;12.27;3.30;;;;;;;-6.85;26.23;98844.84;5071026;28;20662;-73
2021/12/22 05:36:34;;;;;;;3.57;2.13;;;;;;;-6.99;26.21;98833.50;5088659;28;20369;-74
2021/12/22 05:39:00;;;;;;;6.83;2.73;;;;;;;-7.15;26.61;98803.19;5071700;28;20285;-74
2021/12/22 05:41:26;;;;;;;2.20;2.07;;;;;;;-7.11;26.28;98822.81;5041751;28;20047;-74
2021/12/22 05:43:55;;;;;;;11.57;2.67;;;;;;;-7.03;26.85;98814.72;5092523;28;20048;-73
2021/12/22 05:46:20;;;;;;;3.25;2.10;;;;;;;-7.15;26.46;98821.25;5075744;28;20511;-74
2021/12/22 05:48:48;;;;;;;2.87;2.20;;;;;;;-7.10;26.97;98819.31;5058911;28;20044;-74
2021/12/22 05:51:15;;;;;;;2.88;1.85;;;;;;;-7.14;26.69;98815.22;5075023;28;20081;-73
2021/12/22 05:53:44;;;;;;;2.60;2.03;;;;;;;-6.56;26.61;98825.41;5058169;28;20044;-73
2021/12/22 05:56:12;;;;;;;2.23;2.03;;;;;;;-6.59;26.29;98828.13;5074929;28;20043;-73
2021/12/22 05:58:38;;;;;;;3.42;2.28;;;;;;;-7.15;26.81;98833.34;5075019;28;20325;-73
2021/12/22 06:01:04;;;;;;;2.55;2.30;;;;;;;-7.25;26.66;98829.47;5075123;28;20040;-73
2021/12/22 06:03:32;;;;;;;2.30;1.90;;;;;;;-7.19;26.42;98844.69;5058773;28;20381;-74
2021/12/22 06:05:58;;;;;;;2.37;2.00;;;;;;;-7.63;26.52;98773.63;5057302;28;20300;-72
2021/12/22 06:08:24;;;;;;;2.23;2.13;;;;;;;-7.50;25.95;98819.41;5041322;28;20047;-73
2021/12/22 06:10:50;;;;;;;1.87;1.77;;;;;;;-7.37;26.87;98836.03;5057731;28;20055;-73
2021/12/22 06:13:19;;;;;;;4.27;2.93;;;;;;;-7.28;27.02;98850.25;5056871;28;20067;-73
2021/12/22 06:15:45;;;;;;;2.75;2.30;;;;;;;-7.36;26.26;98837.69;5057486;28;20374;-74
2021/12/22 06:18:11;;;;;;;5.73;2.53;;;;;;;-7.42;26.61;98819.06;5056472;28;20494;-72
2021/12/22 06:20:39;;;;;;;6.88;2.78;;;;;;;-7.47;26.85;98815.84;5041964;28;20418;-73
2021/12/22 06:23:05;;;;;;;1.98;1.88;;;;;;;-7.32;26.12;98844.38;5057762;28;20097;-74
2021/12/22 06:25:30;;;;;;;2.10;1.90;;;;;;;-7.67;26.44;98795.28;5040094;28;20495;-74
2021/12/22 06:27:56;;;;;;;4.20;2.90;;;;;;;-7.35;26.33;98843.72;5040937;28;20051;-74
2021/12/22 06:30:23;;;;;;;2.10;2.00;;;;;;;-7.40;25.97;98854.22;5041622;28;20040;-74
2021/12/22 06:32:50;;;;;;;2.03;1.92;;;;;;;-7.49;26.26;98831.38;5074350;28;20562;-76
2021/12/22 06:35:16;;;;;;;2.55;2.35;;;;;;;-7.37;26.37;98827.44;5074159;28;20105;-73
2021/12/22 06:37:43;;;;;;;2.92;1.98;;;;;;;-7.21;26.18;98838.78;5058096;28;20048;-74
2021/12/22 06:40:10;;;;;;;2.33;2.17;;;;;;;-7.35;25.72;98818.72;5058294;28;20539;-73
2021/12/22 06:42:37;;;;;;;2.30;2.10;;;;;;;-6.91;26.34;98850.28;5074177;28;20088;-75
2021/12/22 06:45:05;;;;;;;2.90;2.70;;;;;;;-7.04;25.71;98859.47;5073795;28;20290;-74
2021/12/22 06:47:31;;;;;;;2.70;2.50;;;;;;;-7.39;25.65;98840.41;5090989;28;20347;-70
2021/12/22 06:49:56;;;;;;;5.90;3.50;;;;;;;-7.48;25.66;98847.72;5057228;28;20297;-72
2021/12/22 06:52:22;;;;;;;1.93;1.80;;;;;;;-7.19;25.92;98865.31;5057284;28;20470;-73
2021/12/22 06:54:48;;;;;;;2.20;2.10;;;;;;;-6.96;26.29;98836.75;5040615;28;20486;-72
2021/12/22 06:57:18;;;;;;;2.63;2.13;;;;;;;-6.35;26.07;98868.31;5040795;28;20048;-72
2021/12/22 06:59:44;;;;;;;3.35;2.72;;;;;;;-5.88;25.44;98862.50;5056946;28;20415;-73
2021/12/22 07:02:10;;;;;;;3.17;1.80;;;;;;;-5.73;24.88;98803.97;5057415;28;20040;-73
2021/12/22 07:04:36;;;;;;;3.80;2.60;;;;;;;-4.92;24.67;98845.41;5040170;28;20055;-73
2021/12/22 07:07:02;;;;;;;4.03;2.97;;;;;;;-4.35;24.48;98847.44;5040405;28;20128;-73
2021/12/22 07:09:28;;;;;;;3.20;2.50;;;;;;;-4.26;24.34;98865.88;5056823;28;20051;-73
2021/12/22 07:11:54;;;;;;;2.87;2.30;;;;;;;-4.48;24.61;98836.06;5056388;28;20488;-73
2021/12/22 07:14:20;;;;;;;3.80;2.57;;;;;;;-4.64;24.98;98855.97;5090342;28;20495;-73
2021/12/22 07:16:46;;;;;;;6.77;2.93;;;;;;;-4.91;24.48;98850.50;5090765;28;20297;-73
2021/12/22 07:19:12;;;;;;;11.67;2.87;;;;;;;-4.89;24.88;98846.09;5057176;28;20126;-73
2021/12/22 07:21:38;;;;;;;4.60;3.13;;;;;;;-5.22;24.92;98864.25;5041081;28;20293;-73
2021/12/22 07:24:05;;;;;;;5.63;2.90;;;;;;;-5.11;24.83;98826.59;5057263;28;20607;-73
2021/12/22 07:26:31;;;;;;;4.50;3.03;;;;;;;-5.14;24.84;98863.00;5057217;28;20051;-73
2021/12/22 07:28:57;;;;;;;10.93;3.40;;;;;;;-5.11;25.20;98876.63;5056388;28;20282;-74
2021/12/22 07:31:23;;;;;;;2.80;2.40;;;;;;;-5.16;24.96;98863.06;5056738;28;20048;-72
2021/12/22 07:34:07;;;;;;;12.20;3.40;;;;;;;-4.44;25.12;98871.22;5056576;28;20435;-73
2021/12/22 07:36:43;;;;;;;4.47;2.63;;;;;;;-4.35;24.83;98876.75;5090556;28;20278;-73
2021/12/22 07:39:09;;;;;;;14.00;3.10;;;;;;;-4.95;25.50;98872.28;5056923;28;20318;-73
2021/12/22 07:41:35;;;;;;;4.83;2.53;;;;;;;-4.73;25.09;98890.97;5073151;28;20388;-73
2021/12/22 07:44:01;;;;;;;5.47;3.70;;;;;;;-4.54;24.92;98881.28;5039772;28;20357;-72
2021/12/22 07:46:27;;;;;;;8.63;3.83;;;;;;;-4.36;24.38;98894.97;5056781;28;20059;-74
2021/12/22 07:48:53;;;;;;;3.27;2.60;;;;;;;-4.21;24.40;98894.13;5090228;28;20092;-74
2021/12/22 07:51:19;;;;;;;11.43;3.57;;;;;;;-4.18;24.80;98875.84;5056952;28;20385;-74
2021/12/22 07:53:48;;;;;;;9.77;3.40;;;;;;;-4.01;24.46;98871.38;5056127;28;20289;-73
2021/12/22 07:56:15;;;;;;;7.80;3.40;;;;;;;-3.87;24.30;98870.56;5039274;28;20054;-73
2021/12/22 07:58:43;;;;;;;5.00;3.67;;;;;;;-3.39;24.81;98885.06;5056559;28;20792;-73
2021/12/22 08:01:08;;;;;;;12.90;3.67;;;;;;;-2.73;24.64;98888.81;5056217;28;20789;-73
2021/12/22 08:03:34;;;;;;;4.83;3.30;;;;;;;-2.04;24.26;98898.25;5039707;28;20296;-74
2021/12/22 08:06:03;;;;;;;6.40;3.43;;;;;;;-1.53;23.60;98878.41;5073425;28;20054;-73
2021/12/22 08:08:28;;;;;;;8.37;3.57;;;;;;;-0.75;23.18;98908.66;5056211;28;20298;-73
2021/12/22 08:10:55;;;;;;;6.50;2.70;;;;;;;-0.23;23.41;98884.03;5072853;28;20411;-73
2021/12/22 08:13:21;;;;;;;6.97;3.30;;;;;;;0.31;22.68;98894.06;5072544;28;20059;-73
2021/12/22 08:15:47;;;;;;;6.03;3.00;;;;;;;0.40;21.85;98885.53;5039477;28;20044;-73
2021/12/22 08:18:15;;;;;;;6.17;3.13;;;;;;;0.68;22.55;98879.91;5056164;28;20048;-73
2021/12/22 08:20:41;;;;;;;7.80;2.97;;;;;;;0.79;21.97;98886.00;5072524;28;20035;-72
2021/12/22 08:23:10;;;;;;;8.03;2.97;;;;;;;1.52;21.03;98875.97;5055521;28;20040;-73
2021/12/22 08:25:36;;;;;;;7.67;3.30;;;;;;;1.30;22.32;98863.75;5055894;28;20046;-73
2021/12/22 08:28:02;;;;;;;6.50;3.00;;;;;;;1.77;21.28;98884.38;5055797;28;20043;-72
2021/12/22 08:30:28;;;;;;;5.30;2.93;;;;;;;2.19;22.47;98892.38;5089481;28;20111;-74
2021/12/22 08:32:55;;;;;;;7.30;3.37;;;;;;;2.77;22.18;98874.38;5038326;28;20129;-75
2021/12/22 08:35:25;;;;;;;10.43;3.17;;;;;;;2.41;21.40;98866.09;5038332;28;20043;-73
2021/12/22 08:40:35;;;;;;;6.53;2.80;;;;;;;3.09;21.21;98895.28;5057587;28;20039;-73
2021/12/22 08:43:01;;;;;;;4.07;2.53;;;;;;;3.45;21.29;98887.72;5038553;28;20407;-73
2021/12/22 08:45:27;;;;;;;4.53;2.80;;;;;;;3.64;21.26;98865.13;5038813;28;20059;-73
2021/12/22 08:47:53;;;;;;;7.00;3.33;;;;;;;4.09;21.33;98863.72;5039083;28;20040;-74
2021/12/22 08:50:19;;;;;;;5.03;3.13;;;;;;;4.52;20.79;98872.06;5038916;28;20062;-73
2021/12/22 08:52:46;;;;;;;9.50;3.47;;;;;;;5.16;20.69;98880.97;5072758;28;20040;-74
2021/12/22 08:55:12;;;;;;;6.60;3.40;;;;;;;5.24;21.08;98871.38;5055061;28;20040;-68
2021/12/22 08:57:38;;;;;;;6.10;3.23;;;;;;;4.99;20.06;98866.75;5055617;28;20487;-74
2021/12/22 09:00:09;;;;;;;12.53;3.90;;;;;;;5.12;20.45;98872.50;5071986;28;20050;-73
2021/12/22 09:02:36;;;;;;;13.85;5.75;;;;;;;4.78;20.62;98879.22;5072363;28;20090;-75
2021/12/22 09:05:02;;;;;;;13.13;5.17;;;;;;;4.41;20.00;98872.19;5060043;28;20488;-77
2021/12/22 09:07:29;;;;;;;6.03;3.47;;;;;;;4.23;19.78;98885.16;5039401;28;20048;-74
2021/12/22 09:09:54;;;;;;;6.60;3.23;;;;;;;3.84;20.68;98872.09;5054911;28;20036;-74
2021/12/22 09:12:20;;;;;;;7.03;3.33;;;;;;;3.69;20.01;98866.38;5038102;28;20473;-75
2021/12/22 09:14:46;;;;;;;9.90;3.67;;;;;;;3.70;19.47;98869.84;5054586;28;20511;-75
2021/12/22 09:17:12;;;;;;;11.67;4.47;;;;;;;4.06;19.23;98877.94;5054670;28;20139;-74
2021/12/22 09:19:38;;;;;;;8.47;4.33;;;;;;;4.39;19.85;98874.94;5038530;28;20055;-74
2021/12/22 09:22:04;;;;;;;9.83;3.63;;;;;;;4.84;20.73;98880.47;5038295;28;20531;-74
2021/12/22 09:24:30;;;;;;;7.50;3.40;;;;;;;5.10;19.83;98878.91;5037708;28;20136;-74
2021/12/22 09:26:56;;;;;;;7.93;3.90;;;;;;;5.26;19.96;98847.53;5038130;28;20048;-75
2021/12/22 09:29:26;;;;;;;6.10;3.40;;;;;;;5.62;20.13;98862.50;5038118;28;20097;-74
2021/12/22 09:31:52;;;;;;;6.93;3.90;;;;;;;6.07;20.70;98873.09;5038796;28;20044;-74
2021/12/22 09:34:19;;;;;;;7.23;3.93;;;;;;;6.17;20.25;98874.69;5054325;28;20536;-75
2021/12/22 09:36:45;;;;;;;6.70;3.90;;;;;;;6.06;19.61;98876.69;5054997;28;20078;-74
2021/12/22 09:39:11;;;;;;;7.87;3.97;;;;;;;5.58;19.86;98862.94;5052832;28;20093;-74
2021/12/22 09:41:37;;;;;;;8.87;4.23;;;;;;;5.19;19.72;98872.78;5053454;28;20537;-75
2021/12/22 09:44:04;;;;;;;9.20;4.10;;;;;;;4.80;19.84;98873.81;5054131;28;20048;-74
2021/12/22 09:46:30;;;;;;;8.60;4.27;;;;;;;4.59;20.21;98866.09;5037229;28;20042;-74
2021/12/22 09:49:07;;;;;;;7.97;3.97;;;;;;;4.51;20.84;98852.81;5053845;28;20044;-73
2021/12/22 09:54:19;;;;;;;8.23;3.80;;;;;;;5.00;19.36;98846.50;5050283;28;20050;-73
2021/12/22 09:56:45;;;;;;;7.37;3.80;;;;;;;5.30;19.78;98874.41;5042297;28;20577;-74
2021/12/22 09:59:11;;;;;;;9.40;4.13;;;;;;;5.37;20.04;98878.94;5042040;28;20052;-74
2021/12/22 10:01:37;;;;;;;7.47;4.10;;;;;;;5.29;19.67;98864.84;5041829;28;20443;-74
2021/12/22 10:04:04;;;;;;;7.23;4.37;;;;;;;4.95;19.55;98873.25;5091552;28;20064;-75
2021/12/22 10:06:30;;;;;;;12.60;4.40;;;;;;;4.94;19.43;98883.91;5041626;28;20478;-75
2021/12/22 10:09:00;;;;;;;12.87;4.37;;;;;;;5.30;20.45;98877.88;5041511;28;20039;-74
2021/12/22 10:11:29;;;;;;;7.70;4.00;;;;;;;5.38;19.85;98893.78;5040790;28;20056;-75
2021/12/22 10:14:00;;;;;;;6.77;4.40;;;;;;;4.71;20.61;98893.06;5041656;28;20052;-77
2021/12/22 10:16:28;;;;;;;;;;;;;;;5.49;19.91;98895.41;5059683;28;20101;-74
2021/12/22 10:19:08;;;;;;;8.00;3.90;;;;;;;5.23;19.73;98892.56;5041156;28;19920;-73
2021/12/22 10:21:51;;;;;;;7.45;3.53;;;;;;;4.62;20.40;98883.38;5057953;28;20052;-74
2021/12/22 10:24:17;;;;;;;6.43;4.13;;;;;;;4.30;19.74;98883.66;5074820;28;20463;-74
2021/12/22 10:26:43;;;;;;;10.67;4.47;;;;;;;4.35;20.45;98867.47;5041057;28;20139;-76
2021/12/22 10:29:08;;;;;;;10.33;4.40;;;;;;;4.54;20.45;98873.56;5057692;28;20659;-75
2021/12/22 10:31:40;;;;;;;11.20;4.70;;;;;;;4.95;20.18;98836.41;5057511;28;20479;-74
2021/12/22 10:34:11;;;;;;;7.70;4.93;;;;;;;5.24;19.68;98883.72;5057708;28;20040;-75
2021/12/22 10:36:42;;;;;;;;;;;;;;;5.28;18.84;98877.19;5058410;28;20044;-77
2021/12/22 10:39:17;;;;;;;8.07;3.93;;;;;;;4.53;19.46;98863.19;5040923;28;19916;-77
2021/12/22 10:41:43;;;;;;;11.33;4.50;;;;;;;3.61;20.16;98878.53;5074179;28;20047;-75
2021/12/22 10:44:09;;;;;;;11.43;4.80;;;;;;;3.62;20.73;98885.44;5057170;28;20051;-77
2021/12/22 10:46:35;;;;;;;11.40;5.07;;;;;;;3.45;20.05;98881.63;5057345;28;20518;-76
2021/12/22 10:49:14;;;;;;;11.50;4.60;;;;;;;3.82;19.52;98890.63;5042412;28;20040;-76
2021/12/22 10:51:43;;;;;;;14.60;5.87;;;;;;;2.55;19.19;98840.41;5074327;28;20411;-76
2021/12/22 10:54:11;;;;;;;9.30;4.17;;;;;;;2.69;20.35;98892.50;5057199;28;20051;-75
2021/12/22 10:56:39;;;;;;;9.97;4.60;;;;;;;2.04;19.96;98883.13;5073688;28;20044;-74
2021/12/22 10:59:15;;;;;;;15.23;4.57;;;;;;;1.82;20.89;98873.53;5056971;28;20036;-75
2021/12/22 11:01:59;;;;;;;10.00;4.13;;;;;;;1.65;20.67;98895.81;5056846;28;20043;-74
2021/12/22 11:04:31;;;;;;;11.07;4.83;;;;;;;1.05;21.44;98881.41;5056724;28;20043;-74
2021/12/22 11:07:09;;;;;;;8.77;4.60;;;;;;;0.95;20.72;98893.53;5040908;28;20051;-75
2021/12/22 11:09:36;;;;;;;6.80;4.30;;;;;;;0.03;21.77;98880.38;5057254;28;20044;-74
2021/12/22 11:12:05;;;;;;;9.53;4.23;;;;;;;0.21;21.28;98899.13;5056669;28;20473;-75
2021/12/22 11:14:38;;;;;;;12.40;3.90;;;;;;;-0.23;20.61;98904.91;5072700;28;20047;-74
2021/12/22 11:17:12;;;;;;;12.47;3.63;;;;;;;-0.97;20.81;98885.81;5090350;28;20044;-74
2021/12/22 11:19:47;;;;;;;7.97;3.97;;;;;;;-1.37;21.09;98880.81;5073257;28;20278;-74
2021/12/22 11:22:18;;;;;;;9.37;3.37;;;;;;;-2.41;21.50;98890.25;5069827;28;20366;-73
2021/12/22 11:24:54;;;;;;;9.57;4.30;;;;;;;-1.98;21.96;98907.41;5054197;28;20294;-74
2021/12/22 11:27:23;;;;;;;7.03;3.40;;;;;;;-2.45;22.30;98897.41;5070677;28;20327;-72
2021/12/22 11:29:55;;;;;;;4.67;3.50;;;;;;;-2.48;22.86;98917.56;5055256;28;20290;-75
2021/12/22 11:32:24;;;;;;;7.53;3.97;;;;;;;-2.86;22.82;98893.09;5070669;28;20278;-74
2021/12/22 11:34:53;;;;;;;10.60;3.73;;;;;;;-3.02;22.58;98921.75;5053462;28;20302;-72
2021/12/22 11:37:20;;;;;;;6.37;3.33;;;;;;;-3.27;23.09;98912.88;5053928;28;20657;-74
2021/12/22 11:39:47;;;;;;;7.17;3.73;;;;;;;-3.35;23.17;98922.91;5070754;28;20369;-73
2021/12/22 11:42:14;;;;;;;4.70;3.30;;;;;;;-3.71;23.26;98928.44;5054031;28;20285;-72
2021/12/22 11:44:44;;;;;;;7.50;3.97;;;;;;;-3.34;24.11;98928.00;5037209;28;20286;-71
2021/12/22 11:47:13;;;;;;;6.10;3.70;;;;;;;-3.71;23.38;98924.09;5053739;28;20878;-74
2021/12/22 11:49:52;;;;;;;6.53;3.57;;;;;;;-3.41;23.38;98931.06;5054757;28;20064;-76
2021/12/22 11:52:43;;;;;;;9.40;3.90;;;;;;;-3.57;22.72;98931.91;5038989;28;20314;-75
2021/12/22 11:55:12;;;;;;;5.30;3.20;;;;;;;-3.84;22.97;98945.63;5037999;28;20744;-76
2021/12/22 11:57:39;;;;;;;14.07;4.20;;;;;;;-4.22;23.85;98955.53;5054456;28;20284;-74
2021/12/22 12:00:34;;;;;;;6.87;3.30;;;;;;;-3.83;22.96;98948.13;5055303;28;20278;-73